Houn Maru — JG5489 — position and weather

sailwx.info

Track history (hours):
 
Tides and Currents Weather Stations Pressure Air Temp Water Temp Dewpoint Dewpoint Depression Visibility Wind Speed Wind Dir Waves Ship Positions

Houn Maru

Last reported at 2016-Dec-07 10:29 UTC. Time now 2016-Dec-08 02:12 UTC.
Position N 34°36' E 134°54'.

Length 91 m; draft 4.5 m.

Type: Tanker. MMSI: 431101172.

Date/timePositionNaut miles runAvg speedWind from/ knotsBaromVisibWave heightAir tempDewpointWater temp
2016-Dec-07 10:29N 34°36' E 134°54'9 9.1
2016-Dec-07 09:33N 34°35' E 135°05'1212.0
2016-Dec-07 08:33N 34°25' E 135°11'3 0.6
2016-Dec-07 04:24N 34°25' E 135°14'2 1.8
2016-Dec-07 03:10N 34°23' E 135°13'0 0.0
2016-Dec-07 02:22N 34°23' E 135°13'0 0.0
2016-Dec-07 01:28N 34°23' E 135°13'0 0.0
2016-Dec-07 00:16N 34°23' E 135°13'0 0.0
2016-Dec-06 23:31N 34°23' E 135°13'0 0.0
2016-Dec-06 22:31N 34°23' E 135°13'0 0.0
2016-Dec-06 21:28N 34°23' E 135°13'0 0.0
2016-Dec-06 20:28N 34°23' E 135°13'0 0.0
2016-Dec-06 18:31N 34°23' E 135°13'0 0.0
2016-Dec-06 17:28N 34°23' E 135°13'0 0.0
2016-Dec-06 16:31N 34°23' E 135°13'0 0.0
2016-Dec-06 15:31N 34°23' E 135°13'0 0.0
2016-Dec-06 14:31N 34°23' E 135°13'4 4.0
2016-Dec-06 13:33N 34°26' E 135°09'1212.3
2016-Dec-06 12:34N 34°37' E 135°02'1 0.0
2016-Dec-05 05:33N 34°37' E 135°01'1212.0
2016-Dec-05 04:33N 34°27' E 135°09'5 1.1
2016-Dec-05 00:04N 34°25' E 135°14'2 2.7
2016-Dec-04 23:17N 34°23' E 135°13'0 0.0
2016-Dec-04 22:23N 34°23' E 135°13'0 0.0
2016-Dec-04 21:29N 34°23' E 135°13'2 2.5
2016-Dec-04 20:32N 34°25' E 135°10'1312.8
2016-Dec-04 19:33N 34°36' E 135°03'6 0.2
2016-Dec-03 06:06N 34°36' E 134°56'6 9.8
2016-Dec-03 05:32N 34°36' E 135°03'1212.2
2016-Dec-03 04:33N 34°26' E 135°10'3 0.7
2016-Dec-02 23:31N 34°23' E 135°13'0 0.0
2016-Dec-02 22:13N 34°23' E 135°13'0 0.1
2016-Dec-02 21:31N 34°23' E 135°13'0 0.0
2016-Dec-02 20:31N 34°23' E 135°13'0 0.0
2016-Dec-02 19:31N 34°23' E 135°13'0 0.0
2016-Dec-02 18:31N 34°23' E 135°13'0 0.1
2016-Dec-02 17:33N 34°23' E 135°13'1010.3
2016-Dec-02 16:33N 34°32' E 135°06'4 0.1
2016-Dec-01 00:33N 34°36' E 135°04'1313.1
2016-Nov-30 23:33N 34°36' E 135°20'  
2016-Nov-28 06:33N 34°36' E 135°25'3 3.2
2016-Nov-28 05:33N 34°35' E 135°21'1010.2
2016-Nov-28 04:33N 34°28' E 135°13'3 0.6
2016-Nov-28 00:06N 34°25' E 135°14'2 3.9
2016-Nov-27 23:31N 34°23' E 135°13'0 0.0
2016-Nov-27 22:19N 34°23' E 135°13'0 0.0
2016-Nov-27 20:31N 34°23' E 135°13'0 0.0
2016-Nov-27 18:31N 34°23' E 135°13'0 0.0
2016-Nov-27 16:19N 34°23' E 135°13'0 0.0
2016-Nov-27 13:25N 34°23' E 135°13'7 8.4
2016-Nov-27 12:33N 34°29' E 135°07'11 9.9
2016-Nov-27 11:29N 34°36' E 134°58'  
Track history (hours):
 
Tides and Currents Weather Stations Pressure Air Temp Water Temp Dewpoint Dewpoint Depression Visibility Wind Speed Wind Dir Waves Ship Positions

Houn Maru

Last reported at 2016-Dec-07 10:29 UTC. Time now 2016-Dec-08 02:12 UTC.
Position N 34°36' E 134°54'.

Length 91 m; draft 4.5 m.

Type: Tanker. MMSI: 431101172.

Date/timePositionNaut miles runAvg speedWind from/ knotsBaromVisibWave heightAir tempDewpointWater temp
2016-Dec-07 10:29N 34°36' E 134°54'9 9.1
2016-Dec-07 09:33N 34°35' E 135°05'1212.0
2016-Dec-07 08:33N 34°25' E 135°11'3 0.6
2016-Dec-07 04:24N 34°25' E 135°14'2 1.8
2016-Dec-07 03:10N 34°23' E 135°13'0 0.0
2016-Dec-07 02:22N 34°23' E 135°13'0 0.0
2016-Dec-07 01:28N 34°23' E 135°13'0 0.0
2016-Dec-07 00:16N 34°23' E 135°13'0 0.0
2016-Dec-06 23:31N 34°23' E 135°13'0 0.0
2016-Dec-06 22:31N 34°23' E 135°13'0 0.0
2016-Dec-06 21:28N 34°23' E 135°13'0 0.0
2016-Dec-06 20:28N 34°23' E 135°13'0 0.0
2016-Dec-06 18:31N 34°23' E 135°13'0 0.0
2016-Dec-06 17:28N 34°23' E 135°13'0 0.0
2016-Dec-06 16:31N 34°23' E 135°13'0 0.0
2016-Dec-06 15:31N 34°23' E 135°13'0 0.0
2016-Dec-06 14:31N 34°23' E 135°13'4 4.0
2016-Dec-06 13:33N 34°26' E 135°09'1212.3
2016-Dec-06 12:34N 34°37' E 135°02'1 0.0
2016-Dec-05 05:33N 34°37' E 135°01'1212.0
2016-Dec-05 04:33N 34°27' E 135°09'5 1.1
2016-Dec-05 00:04N 34°25' E 135°14'2 2.7
2016-Dec-04 23:17N 34°23' E 135°13'0 0.0
2016-Dec-04 22:23N 34°23' E 135°13'0 0.0
2016-Dec-04 21:29N 34°23' E 135°13'2 2.5
2016-Dec-04 20:32N 34°25' E 135°10'1312.8
2016-Dec-04 19:33N 34°36' E 135°03'6 0.2
2016-Dec-03 06:06N 34°36' E 134°56'6 9.8
2016-Dec-03 05:32N 34°36' E 135°03'1212.2
2016-Dec-03 04:33N 34°26' E 135°10'3 0.7
2016-Dec-02 23:31N 34°23' E 135°13'0 0.0
2016-Dec-02 22:13N 34°23' E 135°13'0 0.1
2016-Dec-02 21:31N 34°23' E 135°13'0 0.0
2016-Dec-02 20:31N 34°23' E 135°13'0 0.0
2016-Dec-02 19:31N 34°23' E 135°13'0 0.0
2016-Dec-02 18:31N 34°23' E 135°13'0 0.1
2016-Dec-02 17:33N 34°23' E 135°13'1010.3
2016-Dec-02 16:33N 34°32' E 135°06'4 0.1
2016-Dec-01 00:33N 34°36' E 135°04'1313.1
2016-Nov-30 23:33N 34°36' E 135°20'  
2016-Nov-28 06:33N 34°36' E 135°25'3 3.2
2016-Nov-28 05:33N 34°35' E 135°21'1010.2
2016-Nov-28 04:33N 34°28' E 135°13'3 0.6
2016-Nov-28 00:06N 34°25' E 135°14'2 3.9
2016-Nov-27 23:31N 34°23' E 135°13'0 0.0
2016-Nov-27 22:19N 34°23' E 135°13'0 0.0
2016-Nov-27 20:31N 34°23' E 135°13'0 0.0
2016-Nov-27 18:31N 34°23' E 135°13'0 0.0
2016-Nov-27 16:19N 34°23' E 135°13'0 0.0
2016-Nov-27 13:25N 34°23' E 135°13'7 8.4
2016-Nov-27 12:33N 34°29' E 135°07'11 9.9
2016-Nov-27 11:29N 34°36' E 134°58'  

Dump ship's entire track history